Time;durP1;ratioP1;P1;durP2;ratioP2;P2;SDS_P1;SDS_P2;PMS_P1;PMS_P2;Temp;Humidity;BMP_temperature;BMP_pressure;BME280_temperature;BME280_humidity;BME280_pressure;Samples;Min_cycle;Max_cycle;Signal;HPM_P1;HPM_P2
2021/04/18 00:01:27;;;;;;;;;32.75;32.00;;;;;10.03;66.26;101605.94;5003289;28;11641;-74
2021/04/18 00:04:22;;;;;;;;;30.75;29.25;;;;;9.96;65.22;101603.59;5014189;28;11527;-74
2021/04/18 00:07:18;;;;;;;;;30.75;30.75;;;;;9.91;64.57;101611.16;5014600;28;11571;-75
2021/04/18 00:10:13;;;;;;;;;30.50;28.25;;;;;9.82;64.17;101602.75;5012910;28;11588;-74
2021/04/18 00:13:11;;;;;;;;;32.00;31.50;;;;;9.72;64.27;101600.16;5014332;28;11537;-74
2021/04/18 00:16:06;;;;;;;;;30.25;30.25;;;;;9.85;65.23;101601.31;5014619;28;11701;-76
2021/04/18 00:19:04;;;;;;;;;29.25;28.50;;;;;9.85;66.21;101601.31;5014320;28;11544;-73
2021/04/18 00:22:01;;;;;;;;;29.75;29.75;;;;;9.73;67.15;101593.50;5012702;28;11593;-74
2021/04/18 00:24:57;;;;;;;;;19.25;19.25;;;;;10.16;71.26;101602.41;5025036;28;11539;-76
2021/04/18 00:27:53;;;;;;;;;28.50;28.25;;;;;10.15;67.50;101603.53;5034146;28;11623;-75
2021/04/18 00:30:50;;;;;;;;;31.50;29.25;;;;;10.26;68.17;101612.47;5016690;28;11564;-74
2021/04/18 00:33:46;;;;;;;;;18.25;17.25;;;;;10.30;66.08;101605.22;5010245;28;11536;-73
2021/04/18 00:36:41;;;;;;;;;45.75;41.25;;;;;10.24;65.78;101604.47;4994481;28;11583;-74
2021/04/18 00:39:37;;;;;;;;;39.50;37.50;;;;;10.13;65.56;101607.72;5005287;28;11713;-75
2021/04/18 00:42:33;;;;;;;;;41.00;38.50;;;;;10.08;66.46;101607.81;5014048;28;11560;-74
2021/04/18 00:45:28;;;;;;;;;43.00;36.50;;;;;10.11;66.08;101609.94;5014677;28;11514;-74
2021/04/18 00:48:24;;;;;;;;;36.00;32.75;;;;;10.17;65.59;101612.31;5012088;28;11565;-75
2021/04/18 00:51:20;;;;;;;;;40.00;37.25;;;;;9.99;66.33;101607.69;5024665;28;11635;-75
2021/04/18 00:54:16;;;;;;;;;33.50;33.50;;;;;10.11;65.51;101599.72;5024037;28;11591;-75
2021/04/18 00:57:12;;;;;;;;;31.25;31.00;;;;;10.00;65.56;101604.63;5010225;28;11527;-74
2021/04/18 01:00:08;;;;;;;;;38.75;37.25;;;;;9.89;67.31;101602.34;5011530;28;11652;-75
2021/04/18 01:03:05;;;;;;;;;53.00;45.75;;;;;9.84;67.02;101605.22;5011336;28;11704;-74
2021/04/18 01:06:03;;;;;;;;;51.50;43.50;;;;;9.66;67.41;101609.66;5013066;28;11591;-74
2021/04/18 01:08:59;;;;;;;;;59.75;49.25;;;;;9.61;68.70;101599.53;5015608;28;12361;-75
2021/04/18 01:11:55;;;;;;;;;56.50;47.50;;;;;9.38;68.64;101598.53;5033271;28;11686;-75
2021/04/18 01:14:51;;;;;;;;;54.25;46.00;;;;;9.53;68.17;101594.69;5032964;28;11729;-75
2021/04/18 01:17:47;;;;;;;;;53.25;43.00;;;;;9.69;67.66;101598.00;5031451;28;11736;-73
2021/04/18 01:20:21;;;;;;;;;48.25;42.50;;;;;9.44;68.15;101599.28;5032801;28;11594;-73
2021/04/18 01:23:16;;;;;;;;;52.50;44.00;;;;;9.34;69.25;101594.72;4980626;28;11643;-74
2021/04/18 01:26:12;;;;;;;;;34.00;34.00;;;;;9.35;69.99;101590.00;4994315;28;11650;-74
2021/04/18 01:29:08;;;;;;;;;26.25;26.25;;;;;9.34;70.51;101593.91;5003886;28;11666;-74
2021/04/18 01:32:04;;;;;;;;;23.50;22.50;;;;;9.41;70.12;101591.56;4998698;28;11532;-74
2021/04/18 01:35:01;;;;;;;;;23.50;22.25;;;;;9.53;69.71;101591.13;5029950;28;11534;-73
2021/04/18 01:37:57;;;;;;;;;16.50;16.50;;;;;9.35;70.30;101584.50;5011504;28;11546;-73
2021/04/18 01:40:53;;;;;;;;;23.00;21.50;;;;;9.42;70.08;101574.69;5012901;28;11526;-72
2021/04/18 01:43:48;;;;;;;;;22.75;20.25;;;;;9.32;70.24;101582.34;5023597;28;11532;-73
2021/04/18 01:46:18;;;;;;;;;23.00;23.00;;;;;9.33;70.09;101589.50;5013190;28;12327;-72
2021/04/18 01:49:14;;;;;;;;;19.75;19.75;;;;;9.27;69.96;101580.47;5023680;28;11543;-73
2021/04/18 01:52:09;;;;;;;;;22.75;22.75;;;;;9.32;69.70;101588.69;5011474;28;11517;-73
2021/04/18 01:55:07;;;;;;;;;21.00;21.00;;;;;9.41;69.34;101586.88;5024175;28;11530;-73
2021/04/18 01:58:04;;;;;;;;;21.00;21.00;;;;;9.42;69.59;101576.66;5012702;28;11558;-73
2021/04/18 02:00:59;;;;;;;;;21.75;21.75;;;;;9.34;70.16;101591.13;5011236;28;11603;-74
2021/04/18 02:03:56;;;;;;;;;21.50;21.50;;;;;9.18;70.25;101587.78;5028346;28;11524;-73
2021/04/18 02:06:52;;;;;;;;;19.75;19.75;;;;;9.05;70.53;101588.56;5030928;28;11517;-74
2021/04/18 02:09:47;;;;;;;;;22.50;22.50;;;;;9.24;70.37;101580.25;5032378;28;11665;-74
2021/04/18 02:12:44;;;;;;;;;24.75;22.75;;;;;9.31;70.33;101580.69;5020416;28;11654;-74
2021/04/18 02:15:40;;;;;;;;;17.25;17.25;;;;;9.26;70.08;101589.88;5010965;28;11502;-74
2021/04/18 02:18:12;;;;;;;;;24.75;24.75;;;;;9.09;70.63;101590.41;4995947;28;11528;-74
2021/04/18 02:21:08;;;;;;;;;21.00;21.00;;;;;9.07;70.15;101592.66;5006150;28;11598;-75
2021/04/18 02:24:03;;;;;;;;;22.25;21.75;;;;;9.18;69.48;101596.06;5032096;28;11530;-73
2021/04/18 02:26:59;;;;;;;;;22.25;22.25;;;;;9.27;70.04;101588.75;5032084;28;11545;-74
2021/04/18 02:29:55;;;;;;;;;24.75;24.75;;;;;9.31;70.12;101587.03;5020093;28;11625;-73
2021/04/18 02:32:51;;;;;;;;;21.50;21.50;;;;;9.11;70.51;101588.16;5008699;28;11539;-73
2021/04/18 02:35:46;;;;;;;;;22.00;22.00;;;;;9.16;69.64;101590.03;5008210;28;11600;-73
2021/04/18 02:38:14;;;;;;;;;23.00;23.00;;;;;9.04;70.28;101586.91;5010035;28;11557;-73
2021/04/18 02:41:00;;;;;;;;;15.75;15.75;;;;;9.24;70.17;101586.59;5010121;28;11525;-73
2021/04/18 02:43:55;;;;;;;;;18.50;18.50;;;;;9.24;69.17;101583.03;5012420;28;11509;-73
2021/04/18 02:46:51;;;;;;;;;24.25;24.00;;;;;9.11;69.03;101588.16;5011696;28;11558;-73
2021/04/18 02:49:46;;;;;;;;;23.50;23.50;;;;;9.02;70.27;101587.22;5012872;28;11520;-73
2021/04/18 02:52:42;;;;;;;;;18.50;18.50;;;;;9.06;70.16;101591.03;5012361;28;11516;-73
2021/04/18 02:55:12;;;;;;;;;23.00;23.00;;;;;9.05;70.39;101588.56;5011411;28;12273;-73
2021/04/18 02:57:56;;;;;;;;;24.75;23.75;;;;;9.08;70.38;101596.25;5012234;28;11664;-73
2021/04/18 03:00:52;;;;;;;;;22.50;22.50;;;;;9.04;70.43;101584.13;5012300;28;11536;-73
2021/04/18 03:03:48;;;;;;;;;27.25;27.25;;;;;8.91;70.80;101591.25;5012938;28;11518;-73
2021/04/18 03:06:43;;;;;;;;;22.25;21.25;;;;;9.01;70.44;101582.81;5012063;28;11538;-73
2021/04/18 03:09:39;;;;;;;;;22.25;22.25;;;;;9.12;70.39;101591.75;5011861;28;11551;-74
2021/04/18 03:12:35;;;;;;;;;22.75;22.75;;;;;8.93;71.16;101585.44;5014866;28;12372;-73
2021/04/18 03:15:30;;;;;;;;;21.25;20.75;;;;;8.94;70.97;101581.53;4999004;28;11520;-75
2021/04/18 03:18:26;;;;;;;;;29.25;27.25;;;;;9.01;70.88;101580.06;5012142;28;11544;-74
2021/04/18 03:21:21;;;;;;;;;38.00;37.00;;;;;9.00;70.64;101586.69;5013217;28;11637;-73
2021/04/18 03:24:18;;;;;;;;;52.50;44.00;;;;;9.04;70.49;101593.25;5012236;28;11622;-73
2021/04/18 03:27:14;;;;;;;;;74.00;59.00;;;;;9.16;70.13;101590.88;5012116;28;12346;-75
2021/04/18 03:30:10;;;;;;;;;80.75;64.75;;;;;9.07;70.54;101589.91;5011546;28;11621;-74
2021/04/18 03:33:05;;;;;;;;;78.50;62.25;;;;;9.18;70.13;101599.66;5014880;28;11638;-74
2021/04/18 03:36:01;;;;;;;;;72.50;60.00;;;;;9.15;69.98;101591.16;5026148;28;11706;-74
2021/04/18 03:38:51;;;;;;;;;76.50;59.25;;;;;9.14;69.95;101590.34;5014253;28;11645;-72
2021/04/18 03:41:47;;;;;;;;;71.50;59.00;;;;;9.13;69.44;101596.19;5036612;28;11602;-73
2021/04/18 03:44:42;;;;;;;;;73.25;60.25;;;;;9.10;69.71;101589.28;5032845;28;11593;-75
2021/04/18 03:47:38;;;;;;;;;70.00;57.50;;;;;9.14;69.65;101598.63;5034595;28;11612;-74
2021/04/18 03:50:34;;;;;;;;;72.25;58.25;;;;;9.14;69.43;101600.56;5034435;28;11613;-74
2021/04/18 03:53:29;;;;;;;;;69.25;54.25;;;;;9.27;69.55;101596.22;5034000;28;11630;-74
2021/04/18 03:56:25;;;;;;;;;64.75;53.50;;;;;9.21;70.16;101598.25;5032945;28;11609;-75
2021/04/18 03:59:08;;;;;;;;;62.25;51.50;;;;;9.14;70.19;101598.63;5034612;28;11628;-74
2021/04/18 04:02:05;;;;;;;;;75.75;60.00;;;;;9.09;70.66;101587.66;5034334;28;11596;-72
2021/04/18 04:05:00;;;;;;;;;78.00;64.00;;;;;9.27;71.11;101597.03;5032539;28;11586;-73
2021/04/18 04:07:56;;;;;;;;;90.67;78.00;;;;;9.41;70.66;101591.56;5012626;28;11745;-74
2021/04/18 04:10:23;;;;;;;;;89.00;77.33;;;;;9.45;70.54;101592.63;5014775;28;8857;-74
2021/04/18 04:13:18;;;;;;;;;94.33;82.00;;;;;9.56;70.84;101585.78;5006277;28;8878;-74
2021/04/18 04:15:56;;;;;;;;;98.67;96.00;;;;;9.54;70.26;101582.53;4998867;28;8844;-72
2021/04/18 04:18:52;;;;;;;;;95.33;87.33;;;;;9.77;70.91;101588.22;4993133;28;8867;-73
2021/04/18 04:21:47;;;;;;;;;104.00;90.00;;;;;9.85;70.10;101593.03;4994751;28;8855;-73
2021/04/18 04:24:43;;;;;;;;;97.67;88.67;;;;;9.97;69.60;101596.16;4993139;28;8866;-73
2021/04/18 04:27:39;;;;;;;;;125.33;111.00;;;;;10.00;69.48;101601.06;4993039;28;8876;-73
2021/04/18 04:30:35;;;;;;;;;135.67;106.00;;;;;10.12;68.85;101597.78;4993177;28;8842;-72
2021/04/18 04:33:33;;;;;;;;;157.33;130.67;;;;;10.11;68.88;101596.13;4994437;28;8842;-73
2021/04/18 04:36:29;;;;;;;;;147.33;125.67;;;;;10.12;68.75;101598.63;4999139;28;8832;-73
2021/04/18 04:39:24;;;;;;;;;151.67;123.33;;;;;10.28;68.89;101594.47;5004602;28;9643;-73
2021/04/18 04:42:06;;;;;;;;;128.33;113.33;;;;;10.24;68.71;101595.38;5014882;28;8882;-74
2021/04/18 04:44:34;;;;;;;;;111.33;102.00;;;;;10.31;69.40;101593.00;5014076;28;8942;-73
2021/04/18 04:47:01;;;;;;;;;97.00;86.00;;;;;10.33;68.67;101595.47;5015493;28;8859;-74
2021/04/18 04:49:29;;;;;;;;;92.67;81.67;;;;;10.39;68.33;101597.00;5014119;28;11643;-74
2021/04/18 04:52:25;;;;;;;;;124.33;107.33;;;;;10.23;68.35;101594.53;5014204;28;11635;-74
2021/04/18 04:55:20;;;;;;;;;97.67;92.00;;;;;10.22;68.04;101597.59;5024733;28;8848;-75
2021/04/18 04:58:16;;;;;;;;;81.25;64.50;;;;;10.08;68.40;101588.47;5013567;28;11644;-73
2021/04/18 05:01:11;;;;;;;;;112.33;95.33;;;;;10.21;67.51;101577.44;5013597;28;11660;-74
2021/04/18 05:03:40;;;;;;;;;139.33;117.00;;;;;10.29;67.38;101578.69;5012058;28;8874;-74
2021/04/18 05:06:38;;;;;;;;;142.00;122.33;;;;;10.39;66.70;101583.19;5013570;28;8856;-74
2021/04/18 05:09:06;;;;;;;;;149.33;123.33;;;;;10.58;66.72;101581.09;5012528;28;9037;-74
2021/04/18 05:12:04;;;;;;;;;148.00;130.67;;;;;10.76;65.58;101580.16;5013391;28;8937;-74
2021/04/18 05:15:00;;;;;;;;;133.67;116.33;;;;;10.80;65.15;101583.94;5018154;28;8859;-73
2021/04/18 05:17:56;;;;;;;;;122.00;104.33;;;;;10.93;64.34;101575.94;5024575;28;8872;-70
2021/04/18 05:20:51;;;;;;;;;123.67;104.67;;;;;11.30;63.44;101583.91;5032401;28;8840;-76
2021/04/18 05:23:47;;;;;;;;;95.33;83.67;;;;;11.53;63.21;101567.28;4995435;28;8940;-74
2021/04/18 05:26:43;;;;;;;;;93.00;82.25;;;;;12.12;63.48;101567.97;5010001;28;8856;-75
2021/04/18 05:29:12;;;;;;;;;89.75;72.75;;;;;12.68;66.20;101575.47;5012596;28;12378;-75
2021/04/18 05:32:08;;;;;;;;;98.00;90.00;;;;;12.88;61.74;101574.03;5013933;28;11657;-75
2021/04/18 05:35:06;;;;;;;;;93.25;79.50;;;;;13.39;68.42;101580.75;5012762;28;11723;-75
2021/04/18 05:38:01;;;;;;;;;114.67;103.33;;;;;13.28;61.88;101585.03;5014840;28;11710;-75
2021/04/18 05:40:57;;;;;;;;;80.50;63.25;;;;;13.37;60.85;101585.84;4994182;28;11751;-75
2021/04/18 05:43:53;;;;;;;;;86.25;67.50;;;;;13.05;58.20;101590.69;5004756;28;11606;-76
2021/04/18 05:46:48;;;;;;;;;67.00;54.00;;;;;12.95;58.71;101590.19;5014872;28;12580;-78
2021/04/18 05:49:44;;;;;;;;;47.75;39.75;;;;;12.83;60.01;101585.28;5013072;28;11576;-77
2021/04/18 05:52:39;;;;;;;;;23.50;23.50;;;;;13.07;58.63;101588.41;5014535;28;11069;-78
2021/04/18 05:55:36;;;;;;;;;27.50;27.50;;;;;13.23;60.91;101579.63;5011526;28;10678;-76
2021/04/18 05:58:05;;;;;;;;;29.00;29.00;;;;;13.21;58.98;101579.13;5014242;28;11039;-76
2021/04/18 06:01:10;;;;;;;;;31.25;30.25;;;;;13.40;58.15;101592.69;5010663;28;10861;-78
2021/04/18 06:04:16;;;;;;;;;50.50;41.25;;;;;13.80;61.99;101588.56;4987889;28;10755;-78
2021/04/18 06:07:12;;;;;;;;;23.25;23.00;;;;;13.77;56.57;101594.75;5010310;28;11165;-77
2021/04/18 06:10:09;;;;;;;;;32.00;31.75;;;;;14.18;56.91;101587.75;5015888;28;10600;-78
2021/04/18 06:13:05;;;;;;;;;70.25;57.50;;;;;14.41;59.14;101582.72;5010762;28;11451;-76
2021/04/18 06:16:01;;;;;;;;;37.00;35.00;;;;;14.44;56.92;101584.88;5016674;28;11583;-75
2021/04/18 06:18:57;;;;;;;;;48.50;41.25;;;;;14.92;57.99;101580.81;5014883;28;10789;-75
2021/04/18 06:21:56;;;;;;;;;116.25;115.00;;;;;15.00;58.85;101583.53;5013283;28;12388;-75
2021/04/18 06:24:52;;;;;;;;;104.75;103.50;;;;;15.37;59.34;101583.72;5014229;28;11194;-75
2021/04/18 06:27:48;;;;;;;;;75.25;63.50;;;;;15.78;59.77;101584.81;5015896;28;12438;-76
2021/04/18 06:30:44;;;;;;;;;119.67;117.33;;;;;15.78;56.91;101590.41;5012828;28;11738;-76
2021/04/18 06:33:40;;;;;;;;;218.50;217.25;;;;;15.68;58.75;101586.09;5013751;28;8930;-76
2021/04/18 06:36:36;;;;;;;;;135.67;131.33;;;;;15.76;56.41;101587.97;5009473;28;8832;-77
2021/04/18 06:39:32;;;;;;;;;170.00;170.00;;;;;16.31;61.14;101578.28;5013647;28;8844;-77
2021/04/18 06:42:30;;;;;;;;;94.50;90.75;;;;;16.46;57.23;101578.75;5013275;28;8946;-77
2021/04/18 06:45:27;;;;;;;;;90.50;85.75;;;;;16.38;51.38;101572.94;5014722;28;11673;-77
2021/04/18 06:48:23;;;;;;;;;194.25;193.00;;;;;15.97;54.96;101575.94;5012262;28;11806;-77
2021/04/18 06:51:19;;;;;;;;;86.67;86.00;;;;;16.44;52.44;101581.91;5013603;28;8860;-77
2021/04/18 06:54:15;;;;;;;;;98.00;98.00;;;;;16.21;51.48;101581.53;5012250;28;11598;-77
2021/04/18 06:56:46;;;;;;;;;43.50;36.00;;;;;16.53;49.35;101581.78;5015138;28;11641;-76
2021/04/18 06:59:14;;;;;;;;;57.00;47.75;;;;;16.79;50.46;101590.66;5015720;28;10005;-77
2021/04/18 07:02:24;;;;;;;;;160.75;160.75;;;;;16.97;53.64;101576.41;5013256;28;11522;-77
2021/04/18 07:05:21;;;;;;;;;11.00;9.00;;;;;17.17;50.87;101583.78;5024173;28;9580;-78
2021/04/18 07:08:31;;;;;;;;;64.75;54.00;;;;;16.90;51.49;101583.41;5012672;28;10276;-77
2021/04/18 07:11:42;;;;;;;;;39.00;34.67;;;;;17.15;47.27;101584.13;5013494;28;12081;-78
2021/04/18 07:14:39;;;;;;;;;55.00;46.00;;;;;17.27;48.90;101580.50;5014213;28;9991;-76
2021/04/18 07:17:49;;;;;;;;;52.75;44.75;;;;;17.65;49.70;101584.78;5012875;28;10429;-76
2021/04/18 07:20:57;;;;;;;;;60.00;49.50;;;;;17.70;50.25;101584.50;5013729;28;9897;-77
2021/04/18 07:24:05;;;;;;;;;50.25;42.00;;;;;17.72;46.26;101587.81;5011981;28;10571;-78
2021/04/18 07:26:55;;;;;;;;;81.75;77.25;;;;;17.94;49.34;101578.81;5012889;28;9557;-77
2021/04/18 07:29:57;;;;;;;;;58.25;49.25;;;;;18.03;49.27;101573.03;5011459;28;11559;-76
2021/04/18 07:33:06;;;;;;;;;51.75;43.75;;;;;18.00;45.91;101570.94;5013014;28;10455;-76
2021/04/18 07:35:49;;;;;;;;;56.00;46.00;;;;;18.36;50.14;101572.66;5015035;28;10243;-77
2021/04/18 07:38:51;;;;;;;;;45.75;40.25;;;;;18.13;44.24;101577.28;5011375;28;10785;-78
2021/04/18 07:41:49;;;;;;;;;51.75;44.00;;;;;18.27;44.00;101584.06;5013331;28;9878;-77
2021/04/18 07:44:44;;;;;;;;;24.50;24.50;;;;;18.18;43.12;101588.22;5011039;28;10731;-75
2021/04/18 07:47:45;;;;;;;;;22.33;22.33;;;;;17.59;44.06;101575.81;5014517;28;8943;-78
2021/04/18 07:50:44;;;;;;;;;41.75;37.75;;;;;17.71;43.72;101574.97;5011228;28;8926;-77
2021/04/18 07:53:41;;;;;;;;;29.00;28.67;;;;;17.08;47.16;101567.16;5014475;28;9550;-77
2021/04/18 07:56:41;;;;;;;;;39.00;35.25;;;;;17.49;45.81;101565.97;5012022;28;9618;-78
2021/04/18 07:59:38;;;;;;;;;24.75;24.75;;;;;17.68;46.27;101562.47;5013380;28;9474;-76
2021/04/18 08:02:19;;;;;;;;;35.67;34.00;;;;;17.44;45.25;101552.25;5011280;28;11002;-77
2021/04/18 08:05:16;;;;;;;;;21.25;21.25;;;;;17.89;44.73;101555.88;5008917;28;9477;-77
2021/04/18 08:08:15;;;;;;;;;26.25;26.25;;;;;18.18;43.63;101549.84;5009302;28;9022;-77
2021/04/18 08:11:12;;;;;;;;;20.75;19.25;;;;;17.59;44.81;101550.66;5011580;28;8876;-77
2021/04/18 08:14:16;;;;;;;;;31.00;29.67;;;;;17.58;46.24;101548.22;5012336;28;8864;-78
2021/04/18 08:17:15;;;;;;;;;25.00;25.00;;;;;17.80;44.77;101536.47;5011778;28;9669;-77
2021/04/18 08:20:12;;;;;;;;;12.00;12.00;;;;;17.86;43.01;101540.59;5012396;28;9005;-78
2021/04/18 08:23:13;;;;;;;;;7.25;7.25;;;;;17.47;43.15;101533.91;5011103;28;8821;-78
2021/04/18 08:26:15;;;;;;;;;18.00;18.00;;;;;17.69;42.27;101533.31;5011738;28;8868;-76
2021/04/18 08:29:14;;;;;;;;;28.33;27.33;;;;;17.65;47.35;101523.22;5012391;28;8847;-76
2021/04/18 08:32:14;;;;;;;;;10.00;10.00;;;;;17.44;42.68;101513.09;5014497;28;9163;-76
2021/04/18 08:35:18;;;;;;;;;16.25;16.25;;;;;17.55;45.17;101521.75;5014615;28;8848;-77
2021/04/18 08:38:28;;;;;;;;;11.00;11.00;;;;;18.27;43.62;101505.66;5012389;28;8840;-77
2021/04/18 08:41:36;;;;;;;;;21.00;20.25;;;;;18.54;41.29;101509.47;5013584;28;8858;-77
2021/04/18 08:44:16;;;;;;;;;9.50;9.50;;;;;17.89;41.99;101497.09;5009536;28;8871;-76
2021/04/18 08:46:59;;;;;;;;;10.50;10.50;;;;;18.27;42.57;101497.25;5011435;28;8860;-77
2021/04/18 08:50:15;;;;;;;;;13.75;13.25;;;;;18.32;42.92;101490.53;5009793;28;8987;-77
2021/04/18 08:53:14;;;;;;;;;11.50;11.50;;;;;18.43;43.47;101490.81;5009268;28;8844;-75
2021/04/18 08:56:03;;;;;;;;;11.00;11.00;;;;;18.74;41.36;101489.94;5011773;28;8844;-76
2021/04/18 08:58:32;;;;;;;;;11.00;11.00;;;;;18.83;40.66;101477.31;5009788;28;8879;-77
2021/04/18 09:01:28;;;;;;;;;10.75;10.75;;;;;18.46;38.28;101485.28;5010630;28;8887;-76
2021/04/18 09:04:27;;;;;;;;;8.25;8.25;;;;;18.80;42.04;101483.66;5012276;28;8882;-77
2021/04/18 09:07:29;;;;;;;;;47.75;40.00;;;;;19.30;49.68;101478.25;5012121;28;8867;-78
2021/04/18 09:10:17;;;;;;;;;33.67;32.00;;;;;19.27;41.26;101479.00;5010939;28;10029;-78
2021/04/18 09:13:17;;;;;;;;;15.00;14.33;;;;;19.05;42.19;101481.38;5012208;28;9234;-77
2021/04/18 09:16:23;;;;;;;;;56.25;45.75;;;;;18.64;42.60;101476.47;5008271;28;9060;-76
2021/04/18 09:19:32;;;;;;;;;25.75;25.75;;;;;18.81;41.63;101476.06;5012328;28;9702;-78
2021/04/18 09:22:17;;;;;;;;;13.50;13.50;;;;;18.99;39.17;101479.25;5009801;28;8894;-79
2021/04/18 09:25:17;;;;;;;;;11.50;11.50;;;;;19.38;39.31;101480.81;5007961;28;8852;-77
2021/04/18 09:28:13;;;;;;;;;21.75;21.75;;;;;19.47;39.64;101471.34;5010789;28;8916;-77
2021/04/18 09:31:09;;;;;;;;;14.00;14.00;;;;;19.18;38.86;101468.03;5007891;28;8934;-78
2021/04/18 09:34:06;;;;;;;;;19.25;19.25;;;;;18.94;41.54;101466.34;5011360;28;8840;-77
2021/04/18 09:37:06;;;;;;;;;7.00;7.00;;;;;18.61;39.07;101472.41;5011438;28;8880;-78
2021/04/18 09:40:16;;;;;;;;;19.00;18.25;;;;;19.14;40.69;101456.72;5010660;28;8890;-77
2021/04/18 09:43:13;;;;;;;;;11.00;11.00;;;;;19.61;38.54;101460.41;5010799;28;8843;-78
2021/04/18 09:46:08;;;;;;;;;32.25;31.00;;;;;19.95;40.91;101453.00;5009759;28;8860;-78
2021/04/18 09:49:04;;;;;;;;;13.50;13.50;;;;;19.52;38.57;101455.03;5011055;28;8833;-80
2021/04/18 09:52:02;;;;;;;;;10.25;10.25;;;;;19.22;38.16;101454.06;5011115;28;8847;-77
2021/04/18 09:55:15;;;;;;;;;12.25;12.25;;;;;19.03;43.09;101461.31;5012730;28;8840;-77
2021/04/18 09:57:52;;;;;;;;;15.50;15.50;;;;;18.85;41.21;101457.31;5012041;28;8875;-77
2021/04/18 10:00:47;;;;;;;;;11.50;11.50;;;;;18.32;39.68;101451.34;5012659;28;8851;-78
2021/04/18 10:03:42;;;;;;;;;19.50;16.50;;;;;18.57;39.83;101452.72;5012930;28;8832;-77
2021/04/18 10:06:45;;;;;;;;;7.25;7.25;;;;;18.96;40.23;101458.38;5012819;28;8852;-78
2021/04/18 10:09:54;;;;;;;;;17.50;17.00;;;;;19.19;40.33;101447.22;5012461;28;8863;-77
2021/04/18 10:12:51;;;;;;;;;18.25;15.25;;;;;19.37;39.34;101439.13;4993694;28;8834;-78
2021/04/18 10:15:55;;;;;;;;;17.25;17.25;;;;;19.84;38.91;101437.94;4993063;28;8929;-77
2021/04/18 10:19:03;;;;;;;;;13.50;13.50;;;;;20.07;39.00;101430.31;4992858;28;8861;-78
2021/04/18 10:22:05;;;;;;;;;15.25;12.00;;;;;20.37;36.66;101437.97;5009081;28;8852;-79
2021/04/18 10:25:07;;;;;;;;;11.00;10.00;;;;;20.51;36.02;101429.75;5013091;28;8832;-79
2021/04/18 10:28:03;;;;;;;;;15.25;15.25;;;;;20.75;37.39;101439.69;5012434;28;8840;-77
2021/04/18 10:30:44;;;;;;;;;9.00;9.00;;;;;20.73;34.77;101437.28;5012839;28;8856;-78
2021/04/18 10:33:40;;;;;;;;;9.00;8.75;;;;;20.39;36.38;101432.75;5010673;28;8844;-76
2021/04/18 10:36:35;;;;;;;;;12.25;12.25;;;;;21.12;36.14;101436.94;5013081;28;8852;-78
2021/04/18 10:39:32;;;;;;;;;13.00;13.00;;;;;20.93;35.96;101434.28;5017792;28;8978;-78
2021/04/18 10:42:00;;;;;;;;;7.50;7.50;;;;;20.71;34.91;101436.88;5012802;28;8851;-76
2021/04/18 10:44:59;;;;;;;;;16.75;12.50;;;;;20.65;35.03;101431.97;5008235;28;8844;-77
2021/04/18 10:47:54;;;;;;;;;11.25;10.75;;;;;20.98;37.66;101431.16;4995236;28;8840;-77
2021/04/18 10:50:21;;;;;;;;;9.75;9.75;;;;;21.28;36.60;101425.47;5026619;28;8838;-74
2021/04/18 10:52:49;;;;;;;;;9.00;9.00;;;;;21.59;35.59;101433.41;5032005;28;8857;-74
2021/04/18 10:55:45;;;;;;;;;14.25;14.25;;;;;22.14;38.42;101429.84;5031934;28;8841;-75
2021/04/18 10:58:41;;;;;;;;;10.50;10.00;;;;;22.38;33.43;101422.75;5029480;28;9604;-75
2021/04/18 11:01:36;;;;;;;;;11.00;11.00;;;;;22.20;32.57;101417.00;5032347;28;8838;-75
2021/04/18 11:04:04;;;;;;;;;7.00;7.00;;;;;22.30;31.52;101412.63;5019543;28;8855;-76
2021/04/18 11:07:02;;;;;;;;;7.75;7.75;;;;;22.00;32.33;101410.81;5013893;28;8872;-75
2021/04/18 11:09:58;;;;;;;;;9.50;9.50;;;;;20.87;33.19;101405.72;5027095;28;8830;-77
2021/04/18 11:12:53;;;;;;;;;11.75;11.75;;;;;21.36;34.47;101413.91;5014914;28;8844;-76
2021/04/18 11:15:49;;;;;;;;;11.25;11.25;;;;;21.11;32.32;101410.00;5032941;28;9594;-77
2021/04/18 11:18:46;;;;;;;;;13.75;13.75;;;;;21.08;33.33;101403.13;4994820;28;8897;-78
2021/04/18 11:21:41;;;;;;;;;4.75;4.75;;;;;21.07;32.66;101398.72;4995782;28;8938;-77
2021/04/18 11:24:10;;;;;;;;;21.25;16.75;;;;;21.29;34.33;101396.94;5010552;28;9688;-78
2021/04/18 11:27:05;;;;;;;;;10.00;10.00;;;;;21.49;31.67;101405.19;5015652;28;8835;-76
2021/04/18 11:30:06;;;;;;;;;13.75;11.50;;;;;21.46;32.17;101397.50;5026066;28;8864;-75
2021/04/18 11:33:02;;;;;;;;;8.75;8.75;;;;;21.61;32.71;101400.03;5015268;28;8851;-77
2021/04/18 11:35:59;;;;;;;;;8.75;8.75;;;;;22.15;31.78;101389.19;5015436;28;8930;-76
2021/04/18 11:38:54;;;;;;;;;11.75;11.75;;;;;22.03;31.38;101400.78;5016080;28;8848;-76
2021/04/18 11:41:50;;;;;;;;;9.00;9.00;;;;;21.76;31.84;101386.09;4995580;28;8862;-78
2021/04/18 11:44:45;;;;;;;;;3.00;3.00;;;;;21.81;31.37;101383.72;5010133;28;8861;-77
2021/04/18 11:47:42;;;;;;;;;15.75;14.25;;;;;22.20;32.01;101378.38;5034999;28;8841;-78
2021/04/18 11:50:11;;;;;;;;;10.50;9.75;;;;;22.50;31.65;101377.31;5032866;28;8857;-77
2021/04/18 11:53:08;;;;;;;;;7.50;7.50;;;;;21.95;31.37;101376.59;5034783;28;8867;-80
2021/04/18 11:56:04;;;;;;;;;9.50;9.50;;;;;22.27;31.36;101376.81;5024211;28;9599;-80
2021/04/18 11:58:31;;;;;;;;;11.00;10.50;;;;;21.92;32.25;101373.34;5034993;28;8857;-81
2021/04/18 17:12:59;;;;;;;;;10.25;9.25;;;;;16.53;38.30;101322.91;5001205;28;8832;-81
2021/04/18 17:15:55;;;;;;;;;13.00;12.67;;;;;16.44;38.63;101329.81;4992449;28;8830;-82
2021/04/18 17:18:52;;;;;;;;;9.25;9.25;;;;;16.38;37.43;101327.28;5006681;28;8951;-82
2021/04/18 17:21:47;;;;;;;;;11.67;11.67;;;;;16.46;38.35;101331.09;5011973;28;8870;-82
2021/04/18 17:24:44;;;;;;;;;9.00;9.00;;;;;16.37;38.82;101325.66;5011974;28;8946;-82
2021/04/18 17:27:40;;;;;;;;;22.67;18.67;;;;;16.37;38.92;101325.66;5012907;28;9794;-83
2021/04/18 17:30:36;;;;;;;;;13.00;12.00;;;;;16.27;38.71;101331.75;5012978;28;9338;-82
2021/04/18 17:33:31;;;;;;;;;13.00;13.00;;;;;16.22;38.25;101323.63;5013234;28;9247;-83
2021/04/18 17:36:27;;;;;;;;;13.00;13.00;;;;;16.13;38.71;101322.94;5011186;28;9006;-84
2021/04/18 17:39:22;;;;;;;;;9.00;9.00;;;;;16.07;39.71;101322.38;4994523;28;9103;-83
2021/04/18 17:41:50;;;;;;;;;16.67;16.67;;;;;16.08;39.89;101331.56;5009299;28;9021;-84
2021/04/18 17:44:45;;;;;;;;;17.00;17.00;;;;;16.16;40.24;101325.03;5024077;28;9262;-83
2021/04/18 17:47:20;;;;;;;;;19.00;17.33;;;;;16.06;40.25;101325.53;5023713;28;9341;-85
2021/04/18 17:50:20;;;;;;;;;17.00;17.00;;;;;16.05;40.57;101323.91;4992372;28;8962;-84
2021/04/18 17:53:15;;;;;;;;;15.67;14.33;;;;;16.11;43.12;101326.09;4995240;28;9405;-84
2021/04/18 17:56:01;;;;;;;;;18.33;17.00;;;;;15.88;42.04;101325.00;4993661;28;9411;-85
2021/04/18 17:58:56;;;;;;;;;14.67;14.67;;;;;15.84;43.00;101318.47;4993431;28;9329;-83
2021/04/18 18:01:53;;;;;;;;;18.75;18.75;;;;;15.82;42.78;101323.59;5010519;28;9399;-83
2021/04/18 18:04:21;;;;;;;;;19.50;18.75;;;;;15.55;42.14;101320.34;5031787;28;9454;-84
2021/04/18 18:07:17;;;;;;;;;19.75;19.75;;;;;15.39;43.08;101326.97;5031365;28;9353;-85
2021/04/18 18:10:14;;;;;;;;;24.00;19.25;;;;;15.41;42.21;101324.63;5030896;28;9702;-85
2021/04/18 18:13:10;;;;;;;;;25.25;23.50;;;;;15.48;42.14;101322.88;5022242;28;9742;-84
2021/04/18 18:16:06;;;;;;;;;18.75;18.75;;;;;15.38;43.97;101330.91;5012912;28;9612;-83
2021/04/18 18:19:02;;;;;;;;;22.00;22.00;;;;;15.46;47.67;101332.78;5011360;28;9546;-82
2021/04/18 18:21:58;;;;;;;;;22.25;22.25;;;;;15.58;43.94;101327.19;5022914;28;9638;-82
2021/04/18 18:24:34;;;;;;;;;24.00;23.00;;;;;15.50;44.38;101323.38;5026207;28;9875;-82
2021/04/18 18:27:02;;;;;;;;;22.50;22.00;;;;;15.57;44.62;101325.59;5022131;28;9745;-81
2021/04/18 18:29:30;;;;;;;;;23.75;22.50;;;;;15.57;48.38;101328.38;5008146;28;9763;-83